createdAt,value
2022-11-28T00:00:31.690Z,5.200
2022-11-28T00:01:49.170Z,4.400
2022-11-28T00:02:38.797Z,4.950
2022-11-28T00:03:37.833Z,4.250
2022-11-28T00:04:25.419Z,4.550
2022-11-28T00:05:55.123Z,4.400
2022-11-28T00:06:41.661Z,5.800
2022-11-28T00:07:33.393Z,4.800
2022-11-28T00:08:42.496Z,8.400
2022-11-28T00:09:30.805Z,4.850
2022-11-28T00:12:18.906Z,4.200
2022-11-28T00:12:23.483Z,4.350
2022-11-28T00:13:32.703Z,3.800
2022-11-28T00:14:37.894Z,4.300
2022-11-28T00:15:28.163Z,5.200
2022-11-28T00:16:32.045Z,4.150
2022-11-28T00:17:23.665Z,5.800
2022-11-28T00:18:25.460Z,4.850
2022-11-28T00:19:35.369Z,4.300
2022-11-28T00:20:45.760Z,5.700
2022-11-28T00:21:41.673Z,6.200
2022-11-28T00:22:23.204Z,5.000
2022-11-28T00:23:27.210Z,4.300
2022-11-28T00:24:26.678Z,5.050
2022-11-28T00:25:32.864Z,5.900
2022-11-28T00:27:03.829Z,4.000
2022-11-28T00:27:48.493Z,5.100
2022-11-28T00:28:41.277Z,5.400
2022-11-28T00:29:26.542Z,4.800
2022-11-28T00:30:25.557Z,5.700
2022-11-28T00:31:28.716Z,4.400
2022-11-28T00:32:36.967Z,4.100
2022-11-28T00:33:20.513Z,4.900
2022-11-28T00:34:51.461Z,6.100
2022-11-28T00:35:25.691Z,4.300
2022-11-28T00:36:29.795Z,4.500
2022-11-28T00:37:31.460Z,4.700
2022-11-28T00:38:23.516Z,4.450
2022-11-28T00:39:26.540Z,5.500
2022-11-28T00:41:27.715Z,4.750
2022-11-28T00:42:40.785Z,4.700
2022-11-28T00:43:37.348Z,4.400
2022-11-28T00:44:34.268Z,4.100
2022-11-28T00:45:28.899Z,4.450
2022-11-28T00:46:21.118Z,5.200
2022-11-28T00:47:29.068Z,4.400
2022-11-28T00:48:47.139Z,4.450
2022-11-28T00:49:28.650Z,4.300
2022-11-28T00:50:45.991Z,4.300
2022-11-28T00:51:22.327Z,2.700
2022-11-28T00:52:25.785Z,5.600
2022-11-28T00:53:26.865Z,5.550
2022-11-28T00:54:35.050Z,5.500
2022-11-28T00:55:20.378Z,4.050
2022-11-28T00:56:53.124Z,3.300
2022-11-28T00:57:38.903Z,4.300
2022-11-28T00:58:27.512Z,3.000
2022-11-28T00:59:34.022Z,3.500
2022-11-28T01:00:28.842Z,4.100
2022-11-28T01:01:22.080Z,4.400
2022-11-28T01:02:29.795Z,4.000
2022-11-28T01:03:22.560Z,4.700
2022-11-28T01:04:39.314Z,5.100
2022-11-28T01:05:29.869Z,3.700
2022-11-28T01:06:42.552Z,5.000
2022-11-28T01:07:36.937Z,5.250
2022-11-28T01:08:24.175Z,6.500
2022-11-28T01:09:21.999Z,4.300
2022-11-28T01:10:24.097Z,3.600
2022-11-28T01:11:44.774Z,5.650
2022-11-28T01:12:53.301Z,3.900
2022-11-28T01:13:46.263Z,5.500
2022-11-28T01:14:39.756Z,5.100
2022-11-28T01:15:32.631Z,3.450
2022-11-28T01:16:22.228Z,4.400
2022-11-28T01:17:26.531Z,6.900
2022-11-28T01:18:48.590Z,4.400
2022-11-28T01:19:34.684Z,3.900
2022-11-28T01:20:19.944Z,3.700
2022-11-28T01:21:43.064Z,4.400
2022-11-28T01:22:33.329Z,3.500
2022-11-28T01:23:26.415Z,4.700
2022-11-28T01:24:35.970Z,3.650
2022-11-28T01:25:23.618Z,4.200
2022-11-28T01:26:31.781Z,4.800
2022-11-28T01:27:23.916Z,4.900
2022-11-28T01:28:24.004Z,4.450
2022-11-28T01:29:37.026Z,3.800
2022-11-28T01:30:30.963Z,4.000
2022-11-28T01:31:23.150Z,4.500
2022-11-28T01:32:30.878Z,3.600
2022-11-28T01:33:20.767Z,4.200
2022-11-28T01:34:56.691Z,4.800
2022-11-28T01:35:49.149Z,4.800
2022-11-28T01:36:44.916Z,5.000
2022-11-28T01:37:27.010Z,4.600
2022-11-28T01:38:24.442Z,3.500
2022-11-28T01:39:31.880Z,6.000
2022-11-28T01:40:28.098Z,5.100
2022-11-28T01:41:35.815Z,3.350
2022-11-28T01:42:54.596Z,5.500
2022-11-28T01:43:35.597Z,4.000
2022-11-28T01:44:45.307Z,3.600
2022-11-28T01:45:31.749Z,3.700
2022-11-28T01:46:24.919Z,5.400
2022-11-28T01:47:31.194Z,3.850
2022-11-28T01:48:24.098Z,5.800
2022-11-28T01:49:39.864Z,4.600
2022-11-28T01:50:52.247Z,4.100
2022-11-28T01:51:42.872Z,3.700
2022-11-28T01:52:32.342Z,3.600
2022-11-28T01:53:29.729Z,3.600
2022-11-28T01:54:20.390Z,4.000
2022-11-28T01:55:26.406Z,3.700
2022-11-28T01:56:57.330Z,3.300
2022-11-28T01:57:53.601Z,5.150
2022-11-28T01:58:45.222Z,4.700
2022-11-28T01:59:23.684Z,4.700
2022-11-28T02:00:54.888Z,4.050
2022-11-28T02:01:32.456Z,4.050
2022-11-28T02:41:32.307Z,3.900
2022-11-28T02:42:54.711Z,4.700
2022-11-28T02:43:27.842Z,3.600
2022-11-28T02:44:23.299Z,3.800
2022-11-28T02:45:35.185Z,3.250
2022-11-28T02:46:30.536Z,3.600
2022-11-28T03:21:48.352Z,4.150
2022-11-28T03:22:47.452Z,3.800
2022-11-28T03:23:38.097Z,3.500
2022-11-28T03:24:44.851Z,3.300
2022-11-28T03:26:36.008Z,3.500
2022-11-28T03:26:41.951Z,3.250
2022-11-28T03:28:53.855Z,4.100
2022-11-28T03:29:21.509Z,3.800
2022-11-28T03:30:25.325Z,6.200
2022-11-28T03:31:31.893Z,4.250
2022-11-28T03:32:26.655Z,3.300
2022-11-28T03:33:33.759Z,3.300
2022-11-28T03:34:29.108Z,4.100
2022-11-28T03:35:27.185Z,4.200
2022-11-28T03:36:39.597Z,4.200
2022-11-28T03:37:27.026Z,4.200
2022-11-28T03:38:34.997Z,4.500
2022-11-28T03:39:29.024Z,4.050
2022-11-28T03:40:22.641Z,4.500
2022-11-28T03:41:19.866Z,3.700
2022-11-28T03:42:25.663Z,3.600
2022-11-28T03:43:47.909Z,4.750
2022-11-28T03:44:29.488Z,3.400
2022-11-28T03:45:41.333Z,4.050
2022-11-28T03:46:25.434Z,4.900
2022-11-28T03:47:30.176Z,2.400
2022-11-28T03:48:23.693Z,3.100
2022-11-28T03:49:27.499Z,3.250
2022-11-28T03:50:22.262Z,2.450
2022-11-28T03:51:34.765Z,3.600
2022-11-28T03:52:29.816Z,5.050
2022-11-28T03:53:39.392Z,4.250
2022-11-28T03:54:29.987Z,3.900
2022-11-28T03:55:27.384Z,2.800
2022-11-28T03:56:30.703Z,3.700
2022-11-28T03:57:20.974Z,5.100
2022-11-28T03:58:35.122Z,4.150
2022-11-28T03:59:24.344Z,4.000
2022-11-28T04:00:42.905Z,4.050
2022-11-28T04:01:32.403Z,2.600
2022-11-28T04:02:27.966Z,2.700
2022-11-28T04:03:26.045Z,3.000
2022-11-28T04:04:29.671Z,3.750
2022-11-28T04:05:25.031Z,4.300
2022-11-28T04:06:23.730Z,3.250
2022-11-28T04:07:45.488Z,3.600
2022-11-28T04:08:35.834Z,2.800
2022-11-28T04:09:33.230Z,3.300
2022-11-28T04:10:27.805Z,4.700
2022-11-28T04:11:32.510Z,3.700
2022-11-28T04:12:28.828Z,2.950
2022-11-28T04:13:27.164Z,3.300
2022-11-28T04:14:22.116Z,4.200
2022-11-28T04:15:39.337Z,3.500
2022-11-28T04:16:39.511Z,2.700
2022-11-28T04:17:24.462Z,3.900
2022-11-28T04:18:37.812Z,4.600
2022-11-28T04:19:29.516Z,2.700
2022-11-28T04:20:22.419Z,3.850
2022-11-28T04:21:41.535Z,3.700
2022-11-28T04:22:45.510Z,3.300
2022-11-28T04:23:39.424Z,2.900
2022-11-28T04:24:26.831Z,3.600
2022-11-28T04:25:24.519Z,3.200
2022-11-28T04:26:36.605Z,3.550
2022-11-28T04:27:30.356Z,3.700
2022-11-28T04:28:21.556Z,3.900
2022-11-28T04:29:52.952Z,3.800
2022-11-28T04:30:43.458Z,4.400
2022-11-28T04:31:27.495Z,3.600
2022-11-28T04:32:27.034Z,4.700
2022-11-28T04:33:24.169Z,3.100
2022-11-28T04:34:34.083Z,3.100
2022-11-28T04:35:27.045Z,2.550
2022-11-28T04:36:56.164Z,3.100
2022-11-28T04:37:34.447Z,4.200
2022-11-28T04:38:30.745Z,3.900
2022-11-28T04:39:33.237Z,3.800
2022-11-28T04:40:28.703Z,4.000
2022-11-28T04:41:38.642Z,5.600
2022-11-28T04:42:22.968Z,3.600
2022-11-28T04:43:21.569Z,3.900
2022-11-28T04:44:52.912Z,2.900
2022-11-28T04:45:36.319Z,2.600
2022-11-28T04:46:22.319Z,4.300
2022-11-28T04:47:30.810Z,2.700
2022-11-28T04:48:27.622Z,2.200
2022-11-28T04:49:33.052Z,4.100
2022-11-28T04:50:26.298Z,3.700
2022-11-28T04:51:54.630Z,2.800
2022-11-28T04:52:38.095Z,4.000
2022-11-28T04:53:27.307Z,3.400
2022-11-28T04:54:35.641Z,3.450
2022-11-28T04:55:27.639Z,3.900
2022-11-28T04:56:31.624Z,3.400
2022-11-28T04:57:31.077Z,3.050
2022-11-28T04:58:22.601Z,3.250
2022-11-28T04:59:24.769Z,2.800
2022-11-28T05:00:27.548Z,2.400
2022-11-28T05:01:36.269Z,2.700
2022-11-28T05:02:30.680Z,2.550
2022-11-28T05:03:21.701Z,3.250
2022-11-28T05:04:22.264Z,2.900
2022-11-28T05:05:29.065Z,2.900
2022-11-28T05:06:22.576Z,3.750
2022-11-28T05:07:34.152Z,3.200
2022-11-28T05:08:41.314Z,2.500
2022-11-28T05:09:39.498Z,2.850
2022-11-28T05:10:21.577Z,2.300
2022-11-28T05:11:25.365Z,3.500
2022-11-28T05:12:33.273Z,3.400
2022-11-28T05:13:27.488Z,3.250
2022-11-28T05:14:34.568Z,2.950
2022-11-28T05:15:20.082Z,2.600
2022-11-28T05:16:26.894Z,2.200
2022-11-28T05:17:31.387Z,3.050
2022-11-28T05:18:26.953Z,3.000
2022-11-28T05:19:34.870Z,3.300
2022-11-28T05:20:28.179Z,1.650
2022-11-28T05:21:25.499Z,3.000
2022-11-28T05:22:24.984Z,2.850
2022-11-28T05:23:46.226Z,2.800
2022-11-28T05:24:35.716Z,2.800
2022-11-28T05:25:31.476Z,3.800
2022-11-28T05:26:24.803Z,3.200
2022-11-28T05:27:23.046Z,4.600
2022-11-28T05:28:27.340Z,3.100
2022-11-28T05:29:26.395Z,2.400
2022-11-28T05:30:48.473Z,4.000
2022-11-28T05:31:41.411Z,2.800
2022-11-28T05:32:33.031Z,4.500
2022-11-28T05:33:25.129Z,4.100
2022-11-28T05:34:41.082Z,3.800
2022-11-28T05:35:32.169Z,3.150
2022-11-28T05:36:25.715Z,3.450
2022-11-28T05:37:50.579Z,2.700
2022-11-28T05:38:45.233Z,3.200
2022-11-28T05:39:38.228Z,3.100
2022-11-28T05:40:25.707Z,3.400
2022-11-28T05:41:22.613Z,3.900
2022-11-28T05:42:33.819Z,2.100
2022-11-28T05:43:26.480Z,3.950
2022-11-28T05:44:26.679Z,3.750
2022-11-28T05:45:38.582Z,3.100
2022-11-28T05:46:40.452Z,3.300
2022-11-28T05:47:31.497Z,3.600
2022-11-28T05:48:25.993Z,4.350
2022-11-28T05:49:40.725Z,3.200
2022-11-28T05:50:33.667Z,4.100
2022-11-28T05:51:25.049Z,4.250
2022-11-28T05:52:53.277Z,3.900
2022-11-28T05:53:44.075Z,3.450
2022-11-28T05:54:34.159Z,3.800
2022-11-28T05:55:21.411Z,2.700
2022-11-28T05:56:25.285Z,3.400
2022-11-28T05:57:36.553Z,3.000
2022-11-28T05:58:28.333Z,3.550
2022-11-28T05:59:23.873Z,3.550
2022-11-28T06:00:47.798Z,2.800
2022-11-28T06:01:30.985Z,2.900
2022-11-28T06:02:22.500Z,3.650
2022-11-28T06:03:28.569Z,2.900
2022-11-28T06:04:44.604Z,2.250
2022-11-28T06:05:42.203Z,4.200
2022-11-28T06:06:25.886Z,3.200
2022-11-28T06:07:33.040Z,3.500
2022-11-28T06:08:45.992Z,4.200
2022-11-28T06:09:40.476Z,3.800
2022-11-28T06:10:31.711Z,3.600
2022-11-28T06:11:24.637Z,4.300
2022-11-28T06:12:22.745Z,3.300
2022-11-28T06:13:29.725Z,3.000
2022-11-28T06:14:22.771Z,2.700
2022-11-28T06:15:40.558Z,3.200
2022-11-28T06:16:25.961Z,3.900
2022-11-28T06:17:35.815Z,3.450
2022-11-28T06:18:29.425Z,3.000
2022-11-28T06:19:25.960Z,3.700
2022-11-28T06:20:24.005Z,2.500
2022-11-28T06:21:28.711Z,2.500
2022-11-28T06:22:23.768Z,2.400
2022-11-28T06:23:20.519Z,4.600
2022-11-28T06:24:33.016Z,3.300
2022-11-28T06:25:32.762Z,2.950
2022-11-28T06:26:25.309Z,2.900
2022-11-28T06:27:28.418Z,3.600
2022-11-28T06:28:31.070Z,3.100
2022-11-28T06:29:26.859Z,2.800
2022-11-28T06:30:43.524Z,2.900
2022-11-28T06:31:42.226Z,2.850
2022-11-28T06:32:36.192Z,3.300
2022-11-28T06:33:30.390Z,3.400
2022-11-28T06:34:23.628Z,4.900
2022-11-28T06:35:30.043Z,4.000
2022-11-28T06:36:29.473Z,2.450
2022-11-28T06:37:23.458Z,2.200
2022-11-28T06:38:22.237Z,2.250
2022-11-28T06:39:41.638Z,3.400
2022-11-28T06:40:24.128Z,2.700
2022-11-28T06:41:25.656Z,3.100
2022-11-28T06:42:39.313Z,3.200
2022-11-28T06:43:34.433Z,2.600
2022-11-28T06:44:27.484Z,4.100
2022-11-28T06:45:25.715Z,3.600
2022-11-28T06:46:33.218Z,3.950
2022-11-28T06:47:43.252Z,4.350
2022-11-28T06:48:31.035Z,2.900
2022-11-28T06:49:23.633Z,2.800
2022-11-28T06:50:37.867Z,5.200
2022-11-28T06:51:34.810Z,3.600
2022-11-28T06:52:23.352Z,4.700
2022-11-28T06:53:49.624Z,4.400
2022-11-28T06:54:41.566Z,3.550
2022-11-28T06:55:39.158Z,4.200
2022-11-28T06:56:26.099Z,6.100
2022-11-28T06:57:29.459Z,4.350
2022-11-28T06:58:37.594Z,4.150
2022-11-28T06:59:28.157Z,5.350
2022-11-28T07:00:20.199Z,5.300
2022-11-28T07:01:45.462Z,4.900
2022-11-28T07:02:42.456Z,5.100
2022-11-28T07:03:31.138Z,6.350
2022-11-28T07:04:23.093Z,6.800
2022-11-28T07:05:43.424Z,6.400
2022-11-28T07:06:36.532Z,7.400
2022-11-28T07:07:21.153Z,6.050
2022-11-28T07:08:23.488Z,5.700
2022-11-28T07:09:36.163Z,5.800
2022-11-28T07:10:36.108Z,5.300
2022-11-28T07:11:30.120Z,6.100
2022-11-28T07:12:23.168Z,5.650
2022-11-28T07:13:36.995Z,3.900
2022-11-28T07:14:28.251Z,4.900
2022-11-28T07:15:24.568Z,5.100
2022-11-28T07:16:49.459Z,4.200
2022-11-28T07:17:33.940Z,4.700
2022-11-28T07:18:30.726Z,3.800
2022-11-28T07:19:28.341Z,4.400
2022-11-28T07:20:31.612Z,4.000
2022-11-28T07:21:26.990Z,5.100
2022-11-28T07:22:27.507Z,4.950
2022-11-28T07:23:53.764Z,4.250
2022-11-28T07:24:37.271Z,5.300
2022-11-28T07:25:26.194Z,4.900
2022-11-28T07:26:31.520Z,5.050
2022-11-28T07:27:22.855Z,6.100
2022-11-28T07:28:30.193Z,6.100
2022-11-28T07:29:30.142Z,7.400
2022-11-28T07:30:26.187Z,6.800
2022-11-28T07:31:29.814Z,5.300
2022-11-28T07:32:24.625Z,6.200
2022-11-28T07:33:35.470Z,5.600
2022-11-28T07:34:29.092Z,5.750
2022-11-28T07:35:33.647Z,7.400
2022-11-28T07:36:20.957Z,6.250
2022-11-28T07:37:27.184Z,6.000
2022-11-28T07:38:20.101Z,6.900
2022-11-28T07:39:30.416Z,4.500
2022-11-28T07:40:36.615Z,5.350
2022-11-28T07:41:28.353Z,5.300
2022-11-28T07:42:26.273Z,8.000
2022-11-28T07:43:24.951Z,5.800
2022-11-28T07:44:33.571Z,6.800
2022-11-28T07:45:53.508Z,6.900
2022-11-28T07:46:37.159Z,6.400
2022-11-28T07:47:40.133Z,5.700
2022-11-28T07:48:31.499Z,6.350
2022-11-28T07:49:32.239Z,5.400
2022-11-28T07:50:26.620Z,6.500
2022-11-28T07:51:38.558Z,5.850
2022-11-28T07:52:30.525Z,5.000
2022-11-28T07:53:23.025Z,6.000
2022-11-28T07:54:22.365Z,4.700
2022-11-28T07:55:39.800Z,5.800
2022-11-28T07:56:57.036Z,4.850
2022-11-28T07:57:27.659Z,6.200
2022-11-28T07:58:41.423Z,5.800
2022-11-28T07:59:27.167Z,4.650
2022-11-28T08:00:36.307Z,4.600
2022-11-28T08:01:30.575Z,6.800
2022-11-28T08:02:42.463Z,5.400
2022-11-28T08:03:36.255Z,5.700
2022-11-28T08:04:28.324Z,5.400
2022-11-28T08:05:19.975Z,5.700
2022-11-28T08:06:38.918Z,5.600
2022-11-28T08:07:31.720Z,6.700
2022-11-28T08:08:28.250Z,9.200
2022-11-28T08:09:27.963Z,8.200
2022-11-28T08:10:31.597Z,6.000
2022-11-28T08:11:20.521Z,5.400
2022-11-28T08:12:27.780Z,4.900
2022-11-28T08:13:27.609Z,6.200
2022-11-28T08:14:22.142Z,6.750
2022-11-28T08:15:27.109Z,7.900
2022-11-28T08:16:22.047Z,6.300
2022-11-28T08:17:41.735Z,6.700
2022-11-28T08:18:21.535Z,8.100
2022-11-28T08:19:33.804Z,6.100
2022-11-28T08:20:20.793Z,6.500
2022-11-28T08:21:23.091Z,7.200
2022-11-28T08:22:33.665Z,8.000
2022-11-28T08:23:20.086Z,7.900
2022-11-28T08:24:38.172Z,7.500
2022-11-28T08:25:19.987Z,8.650
2022-11-28T08:26:34.358Z,10.400
2022-11-28T08:27:28.761Z,8.650
2022-11-28T08:28:24.040Z,9.050
2022-11-28T08:29:38.533Z,9.500
2022-11-28T08:30:25.174Z,9.900
2022-11-28T08:31:21.414Z,8.400
2022-11-28T08:32:20.166Z,11.000
2022-11-28T08:33:32.873Z,10.250
2022-11-28T08:34:29.261Z,8.300
2022-11-28T08:35:24.882Z,9.100
2022-11-28T08:36:34.298Z,9.450
2022-11-28T08:37:30.604Z,9.000
2022-11-28T08:38:25.961Z,9.750
2022-11-28T08:39:24.324Z,7.500
2022-11-28T08:40:36.008Z,9.900
2022-11-28T08:41:32.707Z,10.150
2022-11-28T08:42:23.956Z,12.400
2022-11-28T08:43:34.022Z,9.650
2022-11-28T08:44:31.858Z,9.000
2022-11-28T08:45:27.923Z,11.300
2022-11-28T08:46:29.241Z,10.100
2022-11-28T08:47:37.080Z,10.300
2022-11-28T08:48:26.182Z,9.800
2022-11-28T08:49:19.472Z,11.500
2022-11-28T08:50:23.592Z,15.000
2022-11-28T08:51:32.747Z,13.200
2022-11-28T08:52:37.087Z,11.800
2022-11-28T08:53:28.699Z,10.300
2022-11-28T08:54:19.967Z,11.100
2022-11-28T08:55:32.380Z,12.300
2022-11-28T08:56:22.022Z,9.300
2022-11-28T08:57:28.845Z,10.800
2022-11-28T08:58:19.708Z,8.550
2022-11-28T08:59:25.863Z,9.700
2022-11-28T09:00:20.417Z,10.000
2022-11-28T09:01:24.807Z,10.550
2022-11-28T09:02:30.521Z,9.300
2022-11-28T09:03:39.333Z,9.100
2022-11-28T09:04:33.719Z,10.100
2022-11-28T09:05:26.755Z,8.750
2022-11-28T09:06:24.340Z,9.350
2022-11-28T09:07:35.286Z,11.400
2022-11-28T09:08:32.568Z,10.550
2022-11-28T09:09:22.918Z,10.900
2022-11-28T09:10:20.226Z,9.500
2022-11-28T09:11:35.126Z,7.900
2022-11-28T09:12:33.108Z,9.200
2022-11-28T09:13:22.745Z,8.600
2022-11-28T09:14:23.117Z,10.700
2022-11-28T09:15:35.877Z,10.200
2022-11-28T09:16:26.348Z,9.500
2022-11-28T09:17:24.119Z,9.400
2022-11-28T09:18:32.101Z,7.950
2022-11-28T09:19:33.267Z,8.900
2022-11-28T09:20:26.966Z,10.000
2022-11-28T09:21:45.315Z,8.700
2022-11-28T09:22:38.406Z,9.000
2022-11-28T09:23:28.455Z,9.900
2022-11-28T09:24:23.784Z,9.750
2022-11-28T09:25:44.442Z,10.850
2022-11-28T09:26:37.463Z,11.600
2022-11-28T09:27:30.515Z,10.500
2022-11-28T09:28:21.921Z,10.100
2022-11-28T09:29:30.735Z,13.550
2022-11-28T09:30:38.675Z,11.300
2022-11-28T09:31:27.679Z,12.950
2022-11-28T09:32:20.958Z,11.100
2022-11-28T09:33:43.732Z,10.300
2022-11-28T09:34:20.785Z,12.300
2022-11-28T09:35:26.035Z,13.250
2022-11-28T09:36:50.974Z,13.000
2022-11-28T09:37:40.431Z,14.100
2022-11-28T09:38:35.219Z,11.300
2022-11-28T09:39:35.800Z,10.700
2022-11-28T09:40:31.248Z,13.950
2022-11-28T09:41:40.471Z,11.800
2022-11-28T09:42:30.461Z,11.850
2022-11-28T09:43:24.822Z,11.700
2022-11-28T09:44:43.974Z,12.000
2022-11-28T09:45:35.554Z,10.400
2022-11-28T09:46:22.384Z,11.250
2022-11-28T09:47:21.317Z,10.300
2022-11-28T09:48:44.115Z,12.200
2022-11-28T09:49:40.253Z,11.750
2022-11-28T09:50:27.353Z,11.350
2022-11-28T09:51:22.814Z,7.600
2022-11-28T09:52:42.823Z,9.100
2022-11-28T09:53:29.125Z,7.600
2022-11-28T09:54:28.573Z,7.300
2022-11-28T09:55:46.520Z,7.300
2022-11-28T09:56:34.790Z,6.800
2022-11-28T09:57:23.950Z,6.350
2022-11-28T09:58:24.123Z,6.600
2022-11-28T09:59:45.195Z,7.900
2022-11-28T10:00:31.369Z,7.000
2022-11-28T10:01:30.253Z,6.300
2022-11-28T10:02:19.722Z,5.900
2022-11-28T10:03:35.869Z,5.200
2022-11-28T10:04:24.595Z,5.600
2022-11-28T10:05:30.127Z,5.350
2022-11-28T10:06:21.613Z,5.650
2022-11-28T10:07:32.349Z,6.200
2022-11-28T10:08:25.040Z,5.500
2022-11-28T10:09:27.320Z,5.350
2022-11-28T10:10:40.060Z,6.200
2022-11-28T10:11:27.798Z,4.900
2022-11-28T10:12:36.990Z,6.250
2022-11-28T10:13:32.657Z,6.300
2022-11-28T10:14:29.554Z,6.100
2022-11-28T10:15:25.004Z,4.200
2022-11-28T10:16:37.741Z,4.650
2022-11-28T10:17:28.346Z,6.300
2022-11-28T10:18:33.401Z,5.900
2022-11-28T10:19:52.213Z,5.850
2022-11-28T10:20:28.704Z,6.350
2022-11-28T10:21:24.009Z,6.400
2022-11-28T10:22:24.820Z,6.000
2022-11-28T10:23:36.961Z,7.000
2022-11-28T10:24:30.222Z,7.500
2022-11-28T10:25:23.410Z,7.050
2022-11-28T10:26:39.824Z,5.900
2022-11-28T10:27:35.187Z,6.900
2022-11-28T10:28:27.938Z,5.100
2022-11-28T10:29:31.288Z,6.100
2022-11-28T10:30:39.549Z,5.600
2022-11-28T10:31:35.448Z,5.800
2022-11-28T10:32:30.670Z,7.100
2022-11-28T10:33:25.997Z,6.400
2022-11-28T10:34:41.276Z,5.950
2022-11-28T10:35:29.672Z,5.900
2022-11-28T10:36:27.857Z,5.800
2022-11-28T10:37:40.233Z,6.100
2022-11-28T10:38:38.783Z,5.400
2022-11-28T10:39:31.270Z,6.200
2022-11-28T10:40:25.149Z,7.550
2022-11-28T10:41:45.170Z,9.400
2022-11-28T10:42:31.197Z,6.500
2022-11-28T10:43:26.899Z,7.700
2022-11-28T10:44:27.092Z,7.900
2022-11-28T10:45:43.704Z,7.850
2022-11-28T10:46:43.313Z,8.000
2022-11-28T10:47:22.558Z,7.100
2022-11-28T10:48:39.118Z,5.950
2022-11-28T10:49:40.395Z,6.600
2022-11-28T10:50:32.662Z,6.850
2022-11-28T10:51:25.425Z,7.100
2022-11-28T10:52:50.541Z,6.400
2022-11-28T10:53:30.422Z,7.250
2022-11-28T10:54:32.258Z,6.100
2022-11-28T10:55:24.608Z,5.700
2022-11-28T10:56:43.996Z,7.850
2022-11-28T10:57:39.715Z,6.800
2022-11-28T10:58:32.707Z,6.500
2022-11-28T10:59:23.478Z,5.650
2022-11-28T11:00:46.958Z,6.200
2022-11-28T11:01:39.973Z,5.850
2022-11-28T11:02:25.158Z,6.900
2022-11-28T11:03:22.593Z,7.200
2022-11-28T11:04:25.904Z,5.100
2022-11-28T11:05:32.981Z,6.700
2022-11-28T11:06:25.466Z,6.600
2022-11-28T11:07:50.343Z,7.100
2022-11-28T11:08:41.650Z,5.800
2022-11-28T11:09:24.167Z,8.800
2022-11-28T11:10:29.707Z,7.100
2022-11-28T11:11:50.610Z,8.100
2022-11-28T11:12:37.264Z,8.000
2022-11-28T11:13:32.243Z,7.950
2022-11-28T11:14:21.860Z,6.800
2022-11-28T11:15:19.239Z,7.200
2022-11-28T11:16:28.354Z,11.500
2022-11-28T11:17:35.928Z,16.500
2022-11-28T11:18:28.896Z,10.400
2022-11-28T11:19:40.481Z,9.750
2022-11-28T11:20:22.262Z,7.800
2022-11-28T11:21:25.812Z,8.400
2022-11-28T11:22:39.650Z,7.350
2022-11-28T11:23:36.764Z,7.900
2022-11-28T11:24:35.934Z,6.200
2022-11-28T11:25:32.110Z,5.800
2022-11-28T11:26:24.659Z,6.700
2022-11-28T11:27:27.740Z,6.300
2022-11-28T11:28:31.315Z,7.100
2022-11-28T11:29:24.693Z,8.050
2022-11-28T11:30:36.298Z,6.450
2022-11-28T11:31:23.728Z,7.500
2022-11-28T11:32:21.842Z,9.050
2022-11-28T11:33:24.375Z,10.900
2022-11-28T11:34:28.190Z,10.200
2022-11-28T11:35:34.151Z,8.800
2022-11-28T11:36:27.555Z,9.050
2022-11-28T11:37:23.741Z,7.800
2022-11-28T11:38:23.681Z,8.400
2022-11-28T11:39:35.947Z,7.600
2022-11-28T11:40:31.306Z,7.900
2022-11-28T11:41:27.625Z,7.200
2022-11-28T11:42:41.711Z,7.900
2022-11-28T11:43:31.251Z,7.150
2022-11-28T11:44:31.135Z,9.300
2022-11-28T11:45:27.336Z,7.950
2022-11-28T11:46:46.424Z,9.100
2022-11-28T11:47:34.138Z,7.000
2022-11-28T11:48:27.426Z,6.200
2022-11-28T11:49:28.069Z,8.400
2022-11-28T11:50:39.253Z,8.900
2022-11-28T11:51:32.782Z,7.500
2022-11-28T11:52:24.889Z,6.500
2022-11-28T11:54:07.833Z,9.400
2022-11-28T11:54:39.138Z,11.500
2022-11-28T11:55:32.257Z,6.800
2022-11-28T11:56:28.303Z,7.700
2022-11-28T11:57:39.109Z,6.600
2022-11-28T11:58:34.097Z,7.000
2022-11-28T11:59:25.673Z,6.900
2022-11-28T12:00:22.640Z,9.200
2022-11-28T12:01:37.691Z,8.400
2022-11-28T12:02:36.749Z,7.050
2022-11-28T12:03:30.932Z,6.700
2022-11-28T12:04:56.224Z,6.250
2022-11-28T12:05:58.921Z,7.200
2022-11-28T12:06:30.278Z,7.500
2022-11-28T12:07:23.634Z,7.050
2022-11-28T12:08:47.577Z,5.400
2022-11-28T12:09:42.673Z,7.650
2022-11-28T12:10:33.584Z,5.500
2022-11-28T12:11:24.662Z,5.900
2022-11-28T12:12:31.525Z,5.950
2022-11-28T12:13:33.919Z,7.500
2022-11-28T12:14:30.170Z,7.900
2022-11-28T12:15:51.277Z,8.800
2022-11-28T12:16:44.569Z,10.400
2022-11-28T12:17:47.898Z,20.000
2022-11-28T12:18:24.683Z,19.000
2022-11-28T12:19:22.162Z,18.000
2022-11-28T12:20:37.110Z,14.400
2022-11-28T12:21:30.133Z,12.050
2022-11-28T12:22:23.278Z,8.300
2022-11-28T12:23:28.976Z,8.600
2022-11-28T12:24:38.600Z,8.100
2022-11-28T12:25:24.123Z,7.850
2022-11-28T12:26:26.877Z,8.500
2022-11-28T12:27:43.165Z,7.300
2022-11-28T12:28:19.467Z,6.800
2022-11-28T12:29:29.147Z,7.300
2022-11-28T12:30:19.992Z,6.400
2022-11-28T12:31:44.931Z,6.500
2022-11-28T12:32:27.705Z,7.100
2022-11-28T12:33:32.054Z,7.400
2022-11-28T12:34:27.039Z,7.200
2022-11-28T12:35:34.499Z,8.800
2022-11-28T12:36:23.871Z,8.600
2022-11-28T12:37:29.421Z,8.100
2022-11-28T12:38:47.600Z,8.100
2022-11-28T12:39:29.665Z,10.200
2022-11-28T12:40:31.663Z,7.900
2022-11-28T12:41:32.638Z,7.500
2022-11-28T12:42:22.487Z,8.000
2022-11-28T12:43:27.690Z,7.750
2022-11-28T12:44:27.404Z,7.400
2022-11-28T12:45:21.946Z,8.250
2022-11-28T12:46:36.585Z,7.200
2022-11-28T12:47:40.313Z,7.000
2022-11-28T12:48:33.441Z,7.250
2022-11-28T12:49:32.168Z,7.200
2022-11-28T12:50:32.008Z,6.700
2022-11-28T12:51:26.565Z,8.900
2022-11-28T12:52:27.533Z,8.050
2022-11-28T12:53:35.380Z,6.500
2022-11-28T12:54:22.901Z,6.500
2022-11-28T12:55:38.131Z,8.300
2022-11-28T12:56:30.676Z,8.400
2022-11-28T12:57:23.846Z,7.550
2022-11-28T12:58:35.841Z,8.900
2022-11-28T12:59:30.121Z,9.150
2022-11-28T13:00:22.814Z,8.000
2022-11-28T13:01:25.474Z,10.200
2022-11-28T13:02:24.932Z,10.900
2022-11-28T13:03:39.048Z,7.700
2022-11-28T13:04:27.824Z,7.900
2022-11-28T13:05:21.460Z,9.200
2022-11-28T13:06:33.220Z,8.000
2022-11-28T13:07:31.578Z,9.350
2022-11-28T13:08:28.353Z,10.700
2022-11-28T13:09:47.017Z,7.800
2022-11-28T13:10:43.369Z,9.400
2022-11-28T13:11:32.513Z,11.700
2022-11-28T13:12:26.216Z,10.900
2022-11-28T13:13:22.236Z,9.550
2022-11-28T13:14:33.047Z,8.600
2022-11-28T13:15:24.698Z,10.150
2022-11-28T13:16:50.741Z,9.600
2022-11-28T13:17:46.123Z,9.200
2022-11-28T13:18:35.052Z,12.000
2022-11-28T13:19:31.846Z,11.650
2022-11-28T13:20:21.159Z,10.500
2022-11-28T13:21:34.944Z,9.650
2022-11-28T13:22:26.698Z,9.600
2022-11-28T13:23:21.466Z,8.750
2022-11-28T13:24:52.944Z,9.400
2022-11-28T13:25:34.810Z,8.400
2022-11-28T13:26:35.922Z,11.000
2022-11-28T13:27:27.451Z,9.900
2022-11-28T13:28:39.042Z,11.550
2022-11-28T13:29:32.634Z,9.500
2022-11-28T13:30:26.956Z,9.100
2022-11-28T13:31:41.659Z,10.500
2022-11-28T13:32:47.042Z,8.700
2022-11-28T13:33:46.407Z,9.650
2022-11-28T13:34:34.527Z,11.300
2022-11-28T13:35:24.854Z,9.700
2022-11-28T13:38:54.476Z,7.800
2022-11-28T13:39:12.501Z,7.950
2022-11-28T13:39:50.976Z,8.400
2022-11-28T13:40:36.289Z,8.700
2022-11-28T13:42:03.554Z,6.900
2022-11-28T13:43:09.693Z,8.200
2022-11-28T13:43:22.035Z,7.900
2022-11-28T13:44:35.354Z,6.800
2022-11-28T13:45:30.243Z,8.600
2022-11-28T13:46:56.830Z,8.600
2022-11-28T13:47:29.633Z,8.400
2022-11-28T13:48:49.677Z,8.600
2022-11-28T13:49:34.314Z,11.900
2022-11-28T13:50:26.969Z,8.250
2022-11-28T13:51:36.217Z,8.150
2022-11-28T13:52:20.376Z,8.700
2022-11-28T13:53:21.665Z,7.800
2022-11-28T13:54:44.615Z,9.100
2022-11-28T13:55:30.149Z,8.100
2022-11-28T13:56:37.125Z,7.550
2022-11-28T13:57:29.952Z,7.800
2022-11-28T13:58:22.895Z,7.100
2022-11-28T13:59:25.316Z,6.100
2022-11-28T14:00:27.917Z,7.200
2022-11-28T14:01:44.630Z,6.900
2022-11-28T14:02:32.735Z,6.750
2022-11-28T14:03:40.040Z,7.400
2022-11-28T14:04:27.691Z,7.700
2022-11-28T14:05:29.851Z,6.500
2022-11-28T14:06:26.713Z,5.300
2022-11-28T14:07:32.153Z,6.550